Flight Number: EUR2008 Duration: 0:30
Departure: Innsbruck (LOWI) at 21:10 Distance: 68 Nm
Arrival: Munich Int'l (EDDM) at 21:40 Equipment: B1900D

Weather Information
Innsbruck-Flughafen, Austria (LOWI) 47-16N 011-21E 593M Jan 21, 2019 - 06:50 AM EST / 2019.01.21 1150 UTC
Wind: from the W (280 degrees) at 5 MPH (4 KT):0
Visibility: greater than 7 mile(s):0
Sky conditions: mostly cloudy Temperature: 30 F (-1 C)
Windchill: 24 F (-4 C):1 Dew Point: 19 F (-7 C) Relative Humidity: 63% Pressure (altimeter): 30.03 in. Hg (1017 hPa)
ob: LOWI 211150Z 28004KT 9999 BKN065 M01/M07 Q1017 R08/19//95 NOSIG cycle: 12
Sunrise: 06:55 Sunset: 15:56 (UTC)

Munchen, Germany (EDDM) 48-21N 011-47E Jan 21, 2019 - 06:50 AM EST / 2019.01.21 1150 UTC
Wind: from the NE (050 degrees) at 5 MPH (4 KT) (direction variable):0
Visibility: greater than 7 mile(s):0
Sky conditions: mostly clear Temperature: 26 F (-3 C)
Windchill: 19 F (-7 C):1 Dew Point: 23 F (-5 C) Relative Humidity: 86% Pressure (altimeter): 30.09 in. Hg (1019 hPa)
ob: EDDM 211150Z 05004KT 010V120 9999 FEW012 M03/M05 Q1019 NOSIG cycle: 12
Sunrise: 06:57 Sunset: 15:50 (UTC)

TAF:2019/01/21 12:27 TAF EDDM 211100Z 2112/2218 VRB03KT 9000 SCT040 TEMPO 2200/2210 3000 BR PROB30 TEMPO 2202/2208 BKN007 BECMG 2212/2214 11005KT

Previous Pireps for this route
Date Aircraft Flight time Fuel used Landing rate On time
2013-06-20B1900D0.451140Yes
2013-07-12B1900D00.38206-581No
2013-07-13B1900D00.42181-379No
2013-07-14B1900D00.46342-338No
2013-07-15B1900D00.56291-102Yes
2013-07-28B1900D00.39517-222Yes
2013-08-07B1900D00.32495-197No
2013-08-07B1900D00.28433-102No
2013-08-07B1900D00.29507-96No
2013-08-10B1900D00.31502-350No
2013-08-12B1900D00.29530-172No
2013-08-13B1900D00.40642-116No
2013-10-05B1900D00.36452-85Yes
2013-11-10B1900D0.45429-106No
2013-11-30B1900D0.45443-23Yes
2014-02-19B1900D00.37620-150No
2014-02-23B1900D00.38575-650No
2014-02-23B1900D00.48720-150No
2014-02-28B1900D00.35596-50No
2014-03-01B1900D00.38579-350No
2014-03-02B1900D0,365110No
2014-03-05B1900D00.41525-150No
2014-03-19B1900D00.51414-242No
2014-06-16B1900D01.00673-693No
2014-06-27B1900D0.3518000No
2014-08-28B1900D00.56369-113No
2014-09-15B1900D01.03335-199No
2014-09-27B1900D00.571588-89No
2014-10-01B1900D0.497000No
2014-11-10B1900D0.46376-148Yes
2014-12-21B1900D0.3000No
2015-02-06B1900D00.54-3075-371Charter
2015-04-09B757-2000.5030570Charter
2015-04-16B1900D00.39387-173No
2015-05-22B1900D00.41346-111Yes
2015-06-21B1900D0.49253-306Yes
2015-08-26B1900D0.43465-205Yes
2015-09-13B1900D00.30502-49Charter
2015-11-20B1900D0.50478-242Yes
2016-05-18B1900D0.30253-309Yes
2016-05-20B1900D0.30253-309Yes
2016-06-13B1900D00.49809-531Yes
2016-07-26B1900D00.37396-722Yes
2017-01-24B1900D0.34354-517No
(pireps marked green are flown by you)

Route map